sensor_id;sensor_type;location;lat;lon;timestamp;pressure;altitude;pressure_sealevel;temperature;humidity
79142;BME280;68550;-26.480;29.234;2024-01-10T00:01:18;84161.39;;;27.04;38.26
79142;BME280;68550;-26.480;29.234;2024-01-10T00:03:46;84157.97;;;27.06;38.24
79142;BME280;68550;-26.480;29.234;2024-01-10T00:06:10;84154.14;;;27.02;38.34
79142;BME280;68550;-26.480;29.234;2024-01-10T00:08:36;84151.59;;;27.00;38.31
79142;BME280;68550;-26.480;29.234;2024-01-10T00:10:59;84152.48;;;26.88;38.09
79142;BME280;68550;-26.480;29.234;2024-01-10T00:13:25;84149.91;;;27.14;38.09
79142;BME280;68550;-26.480;29.234;2024-01-10T00:15:50;84147.44;;;26.55;38.13
79142;BME280;68550;-26.480;29.234;2024-01-10T00:18:16;84143.11;;;27.03;38.15
79142;BME280;68550;-26.480;29.234;2024-01-10T00:20:44;84139.12;;;26.89;38.36
79142;BME280;68550;-26.480;29.234;2024-01-10T00:23:06;84146.56;;;26.91;38.31
79142;BME280;68550;-26.480;29.234;2024-01-10T00:25:32;84153.37;;;26.95;38.29
79142;BME280;68550;-26.480;29.234;2024-01-10T00:27:57;84158.33;;;26.88;38.39
79142;BME280;68550;-26.480;29.234;2024-01-10T00:30:22;84158.43;;;27.03;38.24
79142;BME280;68550;-26.480;29.234;2024-01-10T00:32:50;84161.87;;;27.14;38.15
79142;BME280;68550;-26.480;29.234;2024-01-10T00:35:13;84157.02;;;27.28;38.29
79142;BME280;68550;-26.480;29.234;2024-01-10T00:37:39;84154.28;;;26.98;38.39
79142;BME280;68550;-26.480;29.234;2024-01-10T00:40:06;84149.02;;;27.03;38.34
79142;BME280;68550;-26.480;29.234;2024-01-10T00:42:29;84150.26;;;27.08;38.32
79142;BME280;68550;-26.480;29.234;2024-01-10T00:44:55;84153.96;;;27.14;38.26
79142;BME280;68550;-26.480;29.234;2024-01-10T00:47:20;84157.11;;;27.07;38.33
79142;BME280;68550;-26.480;29.234;2024-01-10T00:49:48;84159.88;;;26.77;38.39
79142;BME280;68550;-26.480;29.234;2024-01-10T00:52:11;84166.40;;;26.99;38.44
79142;BME280;68550;-26.480;29.234;2024-01-10T00:54:36;84168.40;;;26.91;38.55
79142;BME280;68550;-26.480;29.234;2024-01-10T00:57:08;84168.03;;;27.01;38.49
79142;BME280;68550;-26.480;29.234;2024-01-10T00:59:27;84160.32;;;26.99;38.55
79142;BME280;68550;-26.480;29.234;2024-01-10T01:01:52;84161.96;;;26.80;38.94
79142;BME280;68550;-26.480;29.234;2024-01-10T01:04:18;84158.85;;;26.86;38.94
79142;BME280;68550;-26.480;29.234;2024-01-10T01:06:42;84157.96;;;26.90;38.94
79142;BME280;68550;-26.480;29.234;2024-01-10T01:09:10;84159.14;;;26.81;39.04
79142;BME280;68550;-26.480;29.234;2024-01-10T01:11:33;84161.47;;;27.04;39.03
79142;BME280;68550;-26.480;29.234;2024-01-10T01:13:58;84161.75;;;26.81;39.09
79142;BME280;68550;-26.480;29.234;2024-01-10T01:16:23;84156.88;;;26.98;39.09
79142;BME280;68550;-26.480;29.234;2024-01-10T01:18:49;84157.06;;;26.76;39.21
79142;BME280;68550;-26.480;29.234;2024-01-10T01:21:16;84156.86;;;26.65;39.49
79142;BME280;68550;-26.480;29.234;2024-01-10T01:23:39;84152.97;;;26.67;39.26
79142;BME280;68550;-26.480;29.234;2024-01-10T01:26:04;84153.15;;;26.72;39.31
79142;BME280;68550;-26.480;29.234;2024-01-10T01:28:30;84150.32;;;27.03;39.35
79142;BME280;68550;-26.480;29.234;2024-01-10T01:30:55;84146.22;;;26.77;39.36
79142;BME280;68550;-26.480;29.234;2024-01-10T01:33:20;84142.51;;;26.77;39.24
79142;BME280;68550;-26.480;29.234;2024-01-10T01:35:47;84136.30;;;26.95;38.94
79142;BME280;68550;-26.480;29.234;2024-01-10T01:38:10;84136.89;;;26.93;39.00
79142;BME280;68550;-26.480;29.234;2024-01-10T01:40:35;84136.99;;;26.62;39.13
79142;BME280;68550;-26.480;29.234;2024-01-10T01:43:01;84133.22;;;26.83;39.11
79142;BME280;68550;-26.480;29.234;2024-01-10T01:45:26;84130.61;;;26.81;39.09
79142;BME280;68550;-26.480;29.234;2024-01-10T01:47:52;84130.51;;;26.84;39.00
79142;BME280;68550;-26.480;29.234;2024-01-10T01:50:17;84133.02;;;26.86;38.95
79142;BME280;68550;-26.480;29.234;2024-01-10T01:52:44;84133.31;;;26.60;39.01
79142;BME280;68550;-26.480;29.234;2024-01-10T01:55:08;84133.35;;;26.84;39.06
79142;BME280;68550;-26.480;29.234;2024-01-10T01:57:33;84133.50;;;26.82;39.32
79142;BME280;68550;-26.480;29.234;2024-01-10T01:59:58;84133.25;;;26.85;39.38
79142;BME280;68550;-26.480;29.234;2024-01-10T02:02:24;84138.85;;;26.79;39.40
79142;BME280;68550;-26.480;29.234;2024-01-10T02:04:50;84143.70;;;27.00;39.44
79142;BME280;68550;-26.480;29.234;2024-01-10T02:07:14;84147.19;;;26.73;39.52
79142;BME280;68550;-26.480;29.234;2024-01-10T02:09:40;84142.26;;;27.00;39.53
79142;BME280;68550;-26.480;29.234;2024-01-10T02:12:06;84133.35;;;26.77;39.43
79142;BME280;68550;-26.480;29.234;2024-01-10T02:14:31;84134.05;;;26.40;39.56
79142;BME280;68550;-26.480;29.234;2024-01-10T02:17:01;84132.39;;;26.80;39.43
79142;BME280;68550;-26.480;29.234;2024-01-10T02:19:23;84137.71;;;27.01;39.50
79142;BME280;68550;-26.480;29.234;2024-01-10T02:21:47;84141.50;;;26.72;39.57
79142;BME280;68550;-26.480;29.234;2024-01-10T02:24:13;84142.68;;;26.69;39.53
79142;BME280;68550;-26.480;29.234;2024-01-10T02:26:38;84137.57;;;26.61;39.61
79142;BME280;68550;-26.480;29.234;2024-01-10T02:29:08;84128.40;;;26.71;39.50
79142;BME280;68550;-26.480;29.234;2024-01-10T02:31:29;84127.37;;;26.44;39.56
79142;BME280;68550;-26.480;29.234;2024-01-10T02:33:54;84124.09;;;26.72;39.55
79142;BME280;68550;-26.480;29.234;2024-01-10T02:36:19;84128.17;;;26.65;39.62
79142;BME280;68550;-26.480;29.234;2024-01-10T02:38:45;84133.08;;;26.98;39.54
79142;BME280;68550;-26.480;29.234;2024-01-10T02:41:10;84139.40;;;26.60;39.71
79142;BME280;68550;-26.480;29.234;2024-01-10T02:43:37;84141.86;;;26.62;39.68
79142;BME280;68550;-26.480;29.234;2024-01-10T02:46:01;84146.61;;;26.67;39.59
79142;BME280;68550;-26.480;29.234;2024-01-10T02:48:26;84149.58;;;26.69;39.54
79142;BME280;68550;-26.480;29.234;2024-01-10T02:50:54;84148.87;;;26.76;39.55
79142;BME280;68550;-26.480;29.234;2024-01-10T02:53:16;84152.19;;;26.75;39.53
79142;BME280;68550;-26.480;29.234;2024-01-10T02:55:43;84150.44;;;26.68;39.68
79142;BME280;68550;-26.480;29.234;2024-01-10T02:58:12;84143.07;;;26.40;40.08
79142;BME280;68550;-26.480;29.234;2024-01-10T03:00:33;84150.93;;;26.83;39.87
79142;BME280;68550;-26.480;29.234;2024-01-10T03:02:58;84153.77;;;26.92;39.73
79142;BME280;68550;-26.480;29.234;2024-01-10T03:05:24;84154.25;;;26.55;39.90
79142;BME280;68550;-26.480;29.234;2024-01-10T03:07:51;84143.68;;;26.71;40.06
79142;BME280;68550;-26.480;29.234;2024-01-10T03:10:15;84142.46;;;26.54;39.97
79142;BME280;68550;-26.480;29.234;2024-01-10T03:12:40;84142.48;;;26.46;40.04
79142;BME280;68550;-26.480;29.234;2024-01-10T03:15:06;84146.61;;;26.56;39.93
79142;BME280;68550;-26.480;29.234;2024-01-10T03:17:31;84149.93;;;26.65;40.19
79142;BME280;68550;-26.480;29.234;2024-01-10T03:19:56;84155.12;;;26.35;40.28
79142;BME280;68550;-26.480;29.234;2024-01-10T03:22:23;84159.68;;;26.38;40.22
79142;BME280;68550;-26.480;29.234;2024-01-10T03:24:48;84161.56;;;26.39;40.23
79142;BME280;68550;-26.480;29.234;2024-01-10T03:27:13;84162.52;;;26.28;40.38
79142;BME280;68550;-26.480;29.234;2024-01-10T03:29:38;84161.80;;;26.53;40.34
79142;BME280;68550;-26.480;29.234;2024-01-10T03:32:12;84164.41;;;26.74;40.20
79142;BME280;68550;-26.480;29.234;2024-01-10T03:34:29;84168.43;;;26.48;40.57
79142;BME280;68550;-26.480;29.234;2024-01-10T03:36:54;84175.09;;;26.33;40.50
79142;BME280;68550;-26.480;29.234;2024-01-10T03:39:25;84183.13;;;26.49;40.65
79142;BME280;68550;-26.480;29.234;2024-01-10T03:41:45;84189.09;;;26.52;40.57
79142;BME280;68550;-26.480;29.234;2024-01-10T03:44:14;84190.26;;;26.27;40.64
79142;BME280;68550;-26.480;29.234;2024-01-10T03:46:38;84193.52;;;26.22;40.76
79142;BME280;68550;-26.480;29.234;2024-01-10T03:49:04;84195.03;;;26.52;40.74
79142;BME280;68550;-26.480;29.234;2024-01-10T03:51:27;84190.83;;;26.34;40.65
79142;BME280;68550;-26.480;29.234;2024-01-10T03:53:54;84193.80;;;26.49;40.75
79142;BME280;68550;-26.480;29.234;2024-01-10T03:56:18;84195.70;;;26.48;40.76
79142;BME280;68550;-26.480;29.234;2024-01-10T03:58:44;84200.95;;;26.44;40.88
79142;BME280;68550;-26.480;29.234;2024-01-10T04:01:09;84202.95;;;26.32;40.75
79142;BME280;68550;-26.480;29.234;2024-01-10T04:03:35;84198.48;;;26.38;40.65
79142;BME280;68550;-26.480;29.234;2024-01-10T04:06:00;84202.85;;;26.26;40.82
79142;BME280;68550;-26.480;29.234;2024-01-10T04:08:25;84206.72;;;26.56;40.74
79142;BME280;68550;-26.480;29.234;2024-01-10T04:10:50;84212.27;;;26.27;40.91
79142;BME280;68550;-26.480;29.234;2024-01-10T04:13:15;84215.19;;;26.51;40.85
79142;BME280;68550;-26.480;29.234;2024-01-10T04:15:43;84215.87;;;26.50;40.89
79142;BME280;68550;-26.480;29.234;2024-01-10T04:18:07;84215.97;;;26.46;41.02
79142;BME280;68550;-26.480;29.234;2024-01-10T04:20:32;84220.39;;;26.43;40.72
79142;BME280;68550;-26.480;29.234;2024-01-10T04:22:58;84222.21;;;26.18;41.00
79142;BME280;68550;-26.480;29.234;2024-01-10T04:25:23;84221.70;;;26.32;40.81
79142;BME280;68550;-26.480;29.234;2024-01-10T04:27:51;84220.27;;;26.30;40.84
79142;BME280;68550;-26.480;29.234;2024-01-10T04:30:14;84220.76;;;26.27;40.99
79142;BME280;68550;-26.480;29.234;2024-01-10T04:32:40;84223.34;;;26.31;40.77
79142;BME280;68550;-26.480;29.234;2024-01-10T04:35:06;84231.07;;;26.36;40.82
79142;BME280;68550;-26.480;29.234;2024-01-10T04:37:31;84238.80;;;26.57;40.96
79142;BME280;68550;-26.480;29.234;2024-01-10T04:39:58;84233.97;;;26.41;40.85
79142;BME280;68550;-26.480;29.234;2024-01-10T04:42:21;84224.27;;;26.37;40.94
79142;BME280;68550;-26.480;29.234;2024-01-10T04:44:49;84223.51;;;26.59;40.67
79142;BME280;68550;-26.480;29.234;2024-01-10T04:47:12;84230.27;;;26.52;40.79
79142;BME280;68550;-26.480;29.234;2024-01-10T04:49:37;84232.07;;;26.68;40.94
79142;BME280;68550;-26.480;29.234;2024-01-10T04:52:06;84239.60;;;26.62;41.03
79142;BME280;68550;-26.480;29.234;2024-01-10T04:54:30;84242.83;;;26.31;41.13
79142;BME280;68550;-26.480;29.234;2024-01-10T04:56:54;84245.24;;;26.43;40.91
79142;BME280;68550;-26.480;29.234;2024-01-10T04:59:19;84254.87;;;26.35;41.10
79142;BME280;68550;-26.480;29.234;2024-01-10T05:04:06;84257.72;;;25.57;43.52
79142;BME280;68550;-26.480;29.234;2024-01-10T05:11:21;84247.58;;;26.27;41.39
79142;BME280;68550;-26.480;29.234;2024-01-10T05:13:52;84246.06;;;26.38;41.30
79142;BME280;68550;-26.480;29.234;2024-01-10T05:16:12;84248.66;;;26.53;41.19
79142;BME280;68550;-26.480;29.234;2024-01-10T05:18:40;84246.20;;;26.50;40.99
79142;BME280;68550;-26.480;29.234;2024-01-10T05:21:04;84247.95;;;26.35;41.04
79142;BME280;68550;-26.480;29.234;2024-01-10T05:23:29;84247.49;;;26.50;41.30
79142;BME280;68550;-26.480;29.234;2024-01-10T05:25:54;84249.62;;;26.55;41.19
79142;BME280;68550;-26.480;29.234;2024-01-10T05:28:39;84246.28;;;26.35;41.10
79142;BME280;68550;-26.480;29.234;2024-01-10T05:38:01;84237.69;;;26.50;41.21
79142;BME280;68550;-26.480;29.234;2024-01-10T05:43:02;84241.21;;;26.59;40.98
79142;BME280;68550;-26.480;29.234;2024-01-10T06:00:02;84233.45;;;26.59;41.19
79142;BME280;68550;-26.480;29.234;2024-01-10T06:02:14;84234.28;;;26.86;41.27
79142;BME280;68550;-26.480;29.234;2024-01-10T06:04:40;84235.04;;;26.81;40.85
79142;BME280;68550;-26.480;29.234;2024-01-10T06:07:07;84243.29;;;26.62;41.18
79142;BME280;68550;-26.480;29.234;2024-01-10T06:09:35;84247.39;;;26.64;41.20
79142;BME280;68550;-26.480;29.234;2024-01-10T06:11:56;84247.26;;;27.09;41.38
79142;BME280;68550;-26.480;29.234;2024-01-10T06:14:35;84247.38;;;26.95;41.87
79142;BME280;68550;-26.480;29.234;2024-01-10T06:16:46;84250.81;;;27.16;41.59
79142;BME280;68550;-26.480;29.234;2024-01-10T06:19:12;84251.02;;;26.97;41.87
79142;BME280;68550;-26.480;29.234;2024-01-10T06:21:49;84251.26;;;26.87;41.16
79142;BME280;68550;-26.480;29.234;2024-01-10T06:24:02;84253.62;;;26.92;41.44
79142;BME280;68550;-26.480;29.234;2024-01-10T06:28:53;84257.69;;;26.95;41.77
79142;BME280;68550;-26.480;29.234;2024-01-10T06:34:06;84269.71;;;26.45;42.73
79142;BME280;68550;-26.480;29.234;2024-01-10T06:36:15;84267.64;;;26.34;42.98
79142;BME280;68550;-26.480;29.234;2024-01-10T06:43:25;84279.11;;;26.55;43.12
79142;BME280;68550;-26.480;29.234;2024-01-10T06:45:51;84280.43;;;26.28;43.23
79142;BME280;68550;-26.480;29.234;2024-01-10T06:48:18;84282.33;;;26.20;43.37
79142;BME280;68550;-26.480;29.234;2024-01-10T06:50:56;84283.60;;;26.06;43.61
79142;BME280;68550;-26.480;29.234;2024-01-10T06:55:33;84280.29;;;26.09;43.35
79142;BME280;68550;-26.480;29.234;2024-01-10T06:58:01;84282.09;;;26.25;42.96
79142;BME280;68550;-26.480;29.234;2024-01-10T07:00:26;84287.33;;;26.33;42.83
79142;BME280;68550;-26.480;29.234;2024-01-10T07:03:04;84286.12;;;26.14;43.25
79142;BME280;68550;-26.480;29.234;2024-01-10T07:05:25;84289.62;;;26.61;42.64
79142;BME280;68550;-26.480;29.234;2024-01-10T07:07:53;84291.79;;;26.72;42.54
79142;BME280;68550;-26.480;29.234;2024-01-10T07:10:16;84293.35;;;26.85;42.46
79142;BME280;68550;-26.480;29.234;2024-01-10T07:12:42;84291.55;;;26.70;42.17
79142;BME280;68550;-26.480;29.234;2024-01-10T07:15:06;84293.74;;;26.87;42.11
79142;BME280;68550;-26.480;29.234;2024-01-10T07:19:57;84296.63;;;26.59;41.78
79142;BME280;68550;-26.480;29.234;2024-01-10T07:22:21;84300.27;;;27.35;41.19
79142;BME280;68550;-26.480;29.234;2024-01-10T07:24:51;84295.68;;;27.13;41.17
79142;BME280;68550;-26.480;29.234;2024-01-10T07:27:12;84293.07;;;27.23;41.49
79142;BME280;68550;-26.480;29.234;2024-01-10T07:29:37;84293.08;;;26.98;41.47
79142;BME280;68550;-26.480;29.234;2024-01-10T07:32:03;84288.50;;;27.27;41.43
79142;BME280;68550;-26.480;29.234;2024-01-10T07:34:29;84287.06;;;27.23;41.43
79142;BME280;68550;-26.480;29.234;2024-01-10T07:36:54;84284.14;;;27.16;41.56
79142;BME280;68550;-26.480;29.234;2024-01-10T07:39:19;84283.33;;;27.14;41.34
79142;BME280;68550;-26.480;29.234;2024-01-10T07:41:55;84285.04;;;26.89;41.44
79142;BME280;68550;-26.480;29.234;2024-01-10T07:44:12;84286.73;;;27.03;41.08
79142;BME280;68550;-26.480;29.234;2024-01-10T07:46:36;84286.01;;;27.23;40.48
79142;BME280;68550;-26.480;29.234;2024-01-10T07:49:04;84284.24;;;27.29;40.22
79142;BME280;68550;-26.480;29.234;2024-01-10T07:51:28;84283.09;;;27.42;40.65
79142;BME280;68550;-26.480;29.234;2024-01-10T07:53:58;84281.06;;;27.27;40.89
79142;BME280;68550;-26.480;29.234;2024-01-10T07:56:18;84280.75;;;27.05;40.91
79142;BME280;68550;-26.480;29.234;2024-01-10T07:58:48;84277.96;;;27.32;40.80
79142;BME280;68550;-26.480;29.234;2024-01-10T08:01:13;84275.25;;;26.84;40.98
79142;BME280;68550;-26.480;29.234;2024-01-10T08:03:39;84275.29;;;27.23;41.16
79142;BME280;68550;-26.480;29.234;2024-01-10T08:06:03;84274.01;;;27.29;40.98
79142;BME280;68550;-26.480;29.234;2024-01-10T08:08:28;84271.97;;;27.28;41.28
79142;BME280;68550;-26.480;29.234;2024-01-10T08:10:51;84274.51;;;27.36;41.65
79142;BME280;68550;-26.480;29.234;2024-01-10T08:13:19;84271.81;;;27.35;41.69
79142;BME280;68550;-26.480;29.234;2024-01-10T08:15:49;84265.84;;;27.35;41.53
79142;BME280;68550;-26.480;29.234;2024-01-10T08:20:43;84260.11;;;27.50;41.13
79142;BME280;68550;-26.480;29.234;2024-01-10T08:23:02;84257.23;;;27.67;41.06
79142;BME280;68550;-26.480;29.234;2024-01-10T08:25:32;84259.85;;;27.55;41.12
79142;BME280;68550;-26.480;29.234;2024-01-10T08:27:49;84257.56;;;27.12;40.89
79142;BME280;68550;-26.480;29.234;2024-01-10T08:30:13;84259.07;;;27.40;40.74
79142;BME280;68550;-26.480;29.234;2024-01-10T08:32:39;84260.21;;;27.57;40.81
79142;BME280;68550;-26.480;29.234;2024-01-10T08:35:05;84260.01;;;27.66;40.63
79142;BME280;68550;-26.480;29.234;2024-01-10T08:37:32;84258.17;;;27.33;40.67
79142;BME280;68550;-26.480;29.234;2024-01-10T08:39:58;84257.05;;;27.34;40.60
79142;BME280;68550;-26.480;29.234;2024-01-10T08:42:21;84257.82;;;27.47;40.34
79142;BME280;68550;-26.480;29.234;2024-01-10T08:44:46;84255.38;;;27.48;40.42
79142;BME280;68550;-26.480;29.234;2024-01-10T08:47:12;84256.07;;;27.75;40.26
79142;BME280;68550;-26.480;29.234;2024-01-10T08:49:37;84252.60;;;27.81;40.19
79142;BME280;68550;-26.480;29.234;2024-01-10T08:52:06;84253.15;;;27.21;39.83
79142;BME280;68550;-26.480;29.234;2024-01-10T08:54:27;84251.40;;;27.81;39.83
79142;BME280;68550;-26.480;29.234;2024-01-10T08:56:53;84246.26;;;27.33;39.93
79142;BME280;68550;-26.480;29.234;2024-01-10T08:59:19;84243.92;;;27.46;39.85
79142;BME280;68550;-26.480;29.234;2024-01-10T09:01:44;84241.25;;;27.72;39.88
79142;BME280;68550;-26.480;29.234;2024-01-10T09:04:11;84238.25;;;27.80;40.12
79142;BME280;68550;-26.480;29.234;2024-01-10T09:06:35;84247.82;;;27.53;40.15
79142;BME280;68550;-26.480;29.234;2024-01-10T09:09:01;84244.81;;;27.80;40.26
79142;BME280;68550;-26.480;29.234;2024-01-10T09:11:26;84247.03;;;27.94;40.12
79142;BME280;68550;-26.480;29.234;2024-01-10T09:13:52;84249.10;;;27.79;40.28
79142;BME280;68550;-26.480;29.234;2024-01-10T09:16:20;84242.27;;;27.71;40.19
79142;BME280;68550;-26.480;29.234;2024-01-10T09:18:42;84248.77;;;27.79;39.52
79142;BME280;68550;-26.480;29.234;2024-01-10T09:21:09;84267.01;;;27.19;40.01
79142;BME280;68550;-26.480;29.234;2024-01-10T09:23:33;84258.69;;;27.44;39.40
79142;BME280;68550;-26.480;29.234;2024-01-10T09:25:58;84268.21;;;27.26;39.64
79142;BME280;68550;-26.480;29.234;2024-01-10T09:28:27;84273.64;;;26.90;39.76
79142;BME280;68550;-26.480;29.234;2024-01-10T09:30:49;84268.12;;;27.82;38.75
79142;BME280;68550;-26.480;29.234;2024-01-10T09:33:16;84265.49;;;27.59;38.87
79142;BME280;68550;-26.480;29.234;2024-01-10T09:35:40;84271.09;;;27.12;39.94
79142;BME280;68550;-26.480;29.234;2024-01-10T09:38:05;84272.76;;;27.36;39.69
79142;BME280;68550;-26.480;29.234;2024-01-10T09:40:31;84268.03;;;27.12;40.03
79142;BME280;68550;-26.480;29.234;2024-01-10T09:42:57;84262.07;;;27.56;40.19
79142;BME280;68550;-26.480;29.234;2024-01-10T09:45:23;84266.80;;;27.51;39.95
79142;BME280;68550;-26.480;29.234;2024-01-10T09:47:52;84275.37;;;27.42;40.18
79142;BME280;68550;-26.480;29.234;2024-01-10T09:50:12;84278.73;;;26.88;39.71
79142;BME280;68550;-26.480;29.234;2024-01-10T09:52:46;84273.71;;;27.04;39.84
79142;BME280;68550;-26.480;29.234;2024-01-10T09:55:02;84279.80;;;27.21;39.48
79142;BME280;68550;-26.480;29.234;2024-01-10T09:57:27;84276.86;;;27.29;39.34
79142;BME280;68550;-26.480;29.234;2024-01-10T09:59:53;84266.18;;;26.98;39.84
79142;BME280;68550;-26.480;29.234;2024-01-10T10:02:19;84269.01;;;26.85;39.95
79142;BME280;68550;-26.480;29.234;2024-01-10T10:04:52;84265.21;;;26.87;39.87
79142;BME280;68550;-26.480;29.234;2024-01-10T10:07:10;84262.03;;;26.63;39.77
79142;BME280;68550;-26.480;29.234;2024-01-10T10:09:35;84274.48;;;26.60;39.49
79142;BME280;68550;-26.480;29.234;2024-01-10T10:12:00;84279.83;;;26.84;39.59
79142;BME280;68550;-26.480;29.234;2024-01-10T10:14:28;84276.40;;;26.94;39.48
79142;BME280;68550;-26.480;29.234;2024-01-10T10:16:51;84285.59;;;26.79;39.70
79142;BME280;68550;-26.480;29.234;2024-01-10T10:19:23;84275.28;;;26.69;39.94
79142;BME280;68550;-26.480;29.234;2024-01-10T10:21:42;84278.80;;;26.79;39.78
79142;BME280;68550;-26.480;29.234;2024-01-10T10:24:08;84276.59;;;26.60;40.17
79142;BME280;68550;-26.480;29.234;2024-01-10T10:26:34;84275.58;;;26.47;40.82
79142;BME280;68550;-26.480;29.234;2024-01-10T10:29:00;84278.38;;;26.62;41.44
79142;BME280;68550;-26.480;29.234;2024-01-10T10:31:28;84280.25;;;26.24;42.20
79142;BME280;68550;-26.480;29.234;2024-01-10T10:33:51;84286.68;;;26.26;42.85
79142;BME280;68550;-26.480;29.234;2024-01-10T10:36:15;84299.75;;;26.49;42.78
79142;BME280;68550;-26.480;29.234;2024-01-10T10:38:41;84313.87;;;26.22;43.37
79142;BME280;68550;-26.480;29.234;2024-01-10T10:41:07;84320.21;;;26.28;43.24
79142;BME280;68550;-26.480;29.234;2024-01-10T10:43:36;84326.43;;;26.14;43.56
79142;BME280;68550;-26.480;29.234;2024-01-10T10:45:57;84329.31;;;26.16;43.70
79142;BME280;68550;-26.480;29.234;2024-01-10T10:48:23;84327.14;;;26.53;43.83
79142;BME280;68550;-26.480;29.234;2024-01-10T10:50:53;84323.75;;;26.49;43.97
79142;BME280;68550;-26.480;29.234;2024-01-10T10:53:15;84321.41;;;26.36;44.08
79142;BME280;68550;-26.480;29.234;2024-01-10T10:55:40;84312.95;;;26.15;43.84
79142;BME280;68550;-26.480;29.234;2024-01-10T10:58:07;84299.78;;;26.20;44.30
79142;BME280;68550;-26.480;29.234;2024-01-10T11:00:31;84285.50;;;26.02;44.24
79142;BME280;68550;-26.480;29.234;2024-01-10T11:02:56;84277.36;;;26.17;44.22
79142;BME280;68550;-26.480;29.234;2024-01-10T11:05:23;84259.50;;;26.30;44.11
79142;BME280;68550;-26.480;29.234;2024-01-10T11:07:49;84251.33;;;25.85;44.74
79142;BME280;68550;-26.480;29.234;2024-01-10T11:10:17;84248.77;;;25.90;44.96
79142;BME280;68550;-26.480;29.234;2024-01-10T11:12:55;84244.20;;;25.97;45.18
79142;BME280;68550;-26.480;29.234;2024-01-10T11:15:17;84241.35;;;25.94;44.92
79142;BME280;68550;-26.480;29.234;2024-01-10T11:20:13;84225.00;;;26.13;44.63
79142;BME280;68550;-26.480;29.234;2024-01-10T11:22:38;84214.55;;;25.80;44.96
79142;BME280;68550;-26.480;29.234;2024-01-10T11:24:45;84217.85;;;25.86;44.88
79142;BME280;68550;-26.480;29.234;2024-01-10T11:27:12;84223.39;;;25.25;46.02
79142;BME280;68550;-26.480;29.234;2024-01-10T11:29:38;84220.27;;;25.19;46.28
79142;BME280;68550;-26.480;29.234;2024-01-10T11:32:02;84213.67;;;24.83;46.87
79142;BME280;68550;-26.480;29.234;2024-01-10T11:34:31;84208.14;;;24.43;47.23
79142;BME280;68550;-26.480;29.234;2024-01-10T11:39:20;84210.26;;;24.94;47.24
79142;BME280;68550;-26.480;29.234;2024-01-10T11:41:43;84212.74;;;24.57;47.07
79142;BME280;68550;-26.480;29.234;2024-01-10T11:44:25;84210.17;;;25.36;48.31
79142;BME280;68550;-26.480;29.234;2024-01-10T11:46:35;84206.89;;;25.30;47.50
79142;BME280;68550;-26.480;29.234;2024-01-10T11:48:59;84205.86;;;25.59;46.22
79142;BME280;68550;-26.480;29.234;2024-01-10T11:51:24;84198.71;;;25.85;45.50
79142;BME280;68550;-26.480;29.234;2024-01-10T11:53:50;84190.24;;;26.12;44.79
79142;BME280;68550;-26.480;29.234;2024-01-10T11:56:15;84190.75;;;25.99;44.87
79142;BME280;68550;-26.480;29.234;2024-01-10T11:58:54;84190.03;;;26.17;44.55
79142;BME280;68550;-26.480;29.234;2024-01-10T12:01:05;84185.60;;;26.26;44.20
79142;BME280;68550;-26.480;29.234;2024-01-10T12:03:31;84179.35;;;26.36;43.91
79142;BME280;68550;-26.480;29.234;2024-01-10T12:05:56;84174.81;;;26.24;43.71
79142;BME280;68550;-26.480;29.234;2024-01-10T12:08:21;84169.96;;;26.47;43.30
79142;BME280;68550;-26.480;29.234;2024-01-10T12:10:48;84163.80;;;26.42;43.36
79142;BME280;68550;-26.480;29.234;2024-01-10T12:13:11;84160.37;;;26.71;43.23
79142;BME280;68550;-26.480;29.234;2024-01-10T12:15:37;84156.53;;;26.87;42.90
79142;BME280;68550;-26.480;29.234;2024-01-10T12:18:02;84152.87;;;26.66;42.80
79142;BME280;68550;-26.480;29.234;2024-01-10T12:20:28;84150.95;;;26.67;42.69
79142;BME280;68550;-26.480;29.234;2024-01-10T12:22:55;84146.39;;;26.63;42.78
79142;BME280;68550;-26.480;29.234;2024-01-10T12:25:18;84138.70;;;26.37;42.87
79142;BME280;68550;-26.480;29.234;2024-01-10T12:27:43;84135.71;;;26.80;42.52
79142;BME280;68550;-26.480;29.234;2024-01-10T12:30:09;84127.16;;;26.70;42.79
79142;BME280;68550;-26.480;29.234;2024-01-10T12:32:34;84128.80;;;26.88;42.34
79142;BME280;68550;-26.480;29.234;2024-01-10T12:35:03;84136.37;;;26.68;42.17
79142;BME280;68550;-26.480;29.234;2024-01-10T12:37:25;84137.96;;;26.90;42.14
79142;BME280;68550;-26.480;29.234;2024-01-10T12:39:51;84131.75;;;26.89;42.20
79142;BME280;68550;-26.480;29.234;2024-01-10T12:42:16;84123.55;;;26.70;42.05
79142;BME280;68550;-26.480;29.234;2024-01-10T12:44:44;84120.09;;;26.95;42.04
79142;BME280;68550;-26.480;29.234;2024-01-10T12:47:06;84116.05;;;27.02;41.95
79142;BME280;68550;-26.480;29.234;2024-01-10T12:49:32;84118.02;;;26.55;41.93
79142;BME280;68550;-26.480;29.234;2024-01-10T12:51:57;84116.36;;;26.83;41.91
79142;BME280;68550;-26.480;29.234;2024-01-10T12:54:23;84115.92;;;26.83;41.92
79142;BME280;68550;-26.480;29.234;2024-01-10T12:56:49;84112.20;;;26.94;41.77
79142;BME280;68550;-26.480;29.234;2024-01-10T12:59:13;84111.50;;;27.25;41.64
79142;BME280;68550;-26.480;29.234;2024-01-10T13:01:38;84107.97;;;27.02;41.69
79142;BME280;68550;-26.480;29.234;2024-01-10T13:04:07;84102.30;;;27.15;41.50
79142;BME280;68550;-26.480;29.234;2024-01-10T13:06:28;84099.29;;;27.11;41.56
79142;BME280;68550;-26.480;29.234;2024-01-10T13:08:56;84097.40;;;27.14;41.52
79142;BME280;68550;-26.480;29.234;2024-01-10T13:11:19;84098.65;;;27.18;41.47
79142;BME280;68550;-26.480;29.234;2024-01-10T13:13:45;84098.99;;;27.22;41.39
79142;BME280;68550;-26.480;29.234;2024-01-10T13:16:11;84095.89;;;27.29;41.35
79142;BME280;68550;-26.480;29.234;2024-01-10T13:18:35;84090.35;;;27.28;41.34
79142;BME280;68550;-26.480;29.234;2024-01-10T13:21:01;84084.31;;;27.07;41.34
79142;BME280;68550;-26.480;29.234;2024-01-10T13:23:25;84083.79;;;27.11;41.28